Time,TemperatureF,DewpointF,PressureIn,WindDirection,WindDirectionDegrees,WindSpeedMPH,WindSpeedGustMPH,Humidity,HourlyPrecipIn,Conditions,Clouds,dailyrainin,SoftwareType,DateUTC
2012-11-07 00:00:00,59.3,24.4,29.92,ESE,113,1.0,2.0,26,0.00,,,0.00,WUHU216DAVISVP2,2012-11-07 08:00:00,
2012-11-07 00:30:00,58.8,24.9,29.92,ESE,113,1.0,2.0,27,0.00,,,0.00,WUHU216DAVISVP2,2012-11-07 08:30:00,
2012-11-07 01:00:00,57.5,24.6,29.92,ESE,113,0.0,2.0,28,0.00,,,0.00,WUHU216DAVISVP2,2012-11-07 09:00:00,
2012-11-07 01:30:00,56.3,23.6,29.92,SSE,158,1.0,3.0,28,0.00,,,0.00,WUHU216DAVISVP2,2012-11-07 09:30:00,
2012-11-07 02:00:00,56.4,23.7,29.92,ESE,113,1.0,4.0,28,0.00,,,0.00,WUHU216DAVISVP2,2012-11-07 10:00:00,
2012-11-07 02:30:00,57.6,23.8,29.91,SE,135,1.0,3.0,27,0.00,,,0.00,WUHU216DAVISVP2,2012-11-07 10:30:00,
2012-11-07 03:00:00,58.6,23.8,29.91,SE,135,1.0,3.0,26,0.00,,,0.00,WUHU216DAVISVP2,2012-11-07 11:00:00,
2012-11-07 03:30:00,57.7,24.8,29.91,SE,135,2.0,5.0,28,0.00,,,0.00,WUHU216DAVISVP2,2012-11-07 11:30:00,
2012-11-07 04:00:00,57.8,24.0,29.91,SE,135,2.0,4.0,27,0.00,,,0.00,WUHU216DAVISVP2,2012-11-07 12:00:00,
2012-11-07 04:30:00,58.7,24.8,29.91,SE,135,2.0,5.0,27,0.00,,,0.00,WUHU216DAVISVP2,2012-11-07 12:30:00,
2012-11-07 05:00:00,57.1,24.3,29.92,SE,135,2.0,5.0,28,0.00,,,0.00,WUHU216DAVISVP2,2012-11-07 13:00:00,
2012-11-07 05:30:00,55.4,24.4,29.92,ESE,113,2.0,5.0,30,0.00,,,0.00,WUHU216DAVISVP2,2012-11-07 13:30:00,
2012-11-07 06:00:00,54.6,24.5,29.92,SE,135,1.0,4.0,31,0.00,,,0.00,WUHU216DAVISVP2,2012-11-07 14:00:00,
2012-11-07 06:30:00,57.4,25.4,29.93,ESE,113,1.0,2.0,29,0.00,,,0.00,WUHU216DAVISVP2,2012-11-07 14:30:00,
2012-11-07 07:00:00,62.3,26.9,29.94,SE,135,1.0,3.0,26,0.00,,,0.00,WUHU216DAVISVP2,2012-11-07 15:00:00,
2012-11-07 07:30:00,65.8,28.0,29.93,SE,135,1.0,4.0,24,0.00,,,0.00,WUHU216DAVISVP2,2012-11-07 15:30:00,
2012-11-07 08:00:00,71.2,26.8,29.94,SSE,158,2.0,5.0,19,0.00,,,0.00,WUHU216DAVISVP2,2012-11-07 16:00:00,
2012-11-07 08:30:00,75.6,26.2,29.93,SSW,203,2.0,5.0,16,0.00,,,0.00,WUHU216DAVISVP2,2012-11-07 16:30:00,
2012-11-07 09:00:00,79.5,26.1,29.93,South,180,1.0,4.0,14,0.00,,,0.00,WUHU216DAVISVP2,2012-11-07 17:00:00,
2012-11-07 09:30:00,82.3,24.6,29.91,SE,135,1.0,3.0,12,0.00,,,0.00,WUHU216DAVISVP2,2012-11-07 17:30:00,
2012-11-07 10:00:00,84.1,26.0,29.90,East,90,1.0,4.0,12,0.00,,,0.00,WUHU216DAVISVP2,2012-11-07 18:00:00,
2012-11-07 10:30:00,86.5,25.7,29.88,WSW,248,1.0,3.0,11,0.00,,,0.00,WUHU216DAVISVP2,2012-11-07 18:30:00,
2012-11-07 11:00:00,87.3,24.1,29.86,NW,315,1.0,4.0,10,0.00,,,0.00,WUHU216DAVISVP2,2012-11-07 19:00:00,
2012-11-07 11:30:00,89.2,25.5,29.84,West,270,2.0,5.0,10,0.00,,,0.00,WUHU216DAVISVP2,2012-11-07 19:30:00,
2012-11-07 12:00:00,89.7,23.3,29.83,WSW,248,2.0,6.0,9,0.00,,,0.00,WUHU216DAVISVP2,2012-11-07 20:00:00,
2012-11-07 12:30:00,88.5,27.3,29.82,WSW,248,4.0,9.0,11,0.00,,,0.00,WUHU216DAVISVP2,2012-11-07 20:30:00,
2012-11-07 13:00:00,87.4,28.5,29.81,WNW,293,4.0,8.0,12,0.00,,,0.00,WUHU216DAVISVP2,2012-11-07 21:00:00,
2012-11-07 13:30:00,88.1,27.0,29.80,WNW,293,3.0,7.0,11,0.00,,,0.00,WUHU216DAVISVP2,2012-11-07 21:30:00,
2012-11-07 14:00:00,87.9,26.8,29.79,WNW,293,2.0,7.0,11,0.00,,,0.00,WUHU216DAVISVP2,2012-11-07 22:00:00,
2012-11-07 14:30:00,87.9,26.8,29.78,NW,315,2.0,6.0,11,0.00,,,0.00,WUHU216DAVISVP2,2012-11-07 22:30:00,
2012-11-07 15:00:00,87.7,24.4,29.78,WNW,293,2.0,5.0,10,0.00,,,0.00,WUHU216DAVISVP2,2012-11-07 23:00:00,
2012-11-07 15:30:00,86.6,25.8,29.78,NW,315,2.0,5.0,11,0.00,,,0.00,WUHU216DAVISVP2,2012-11-07 23:30:00,
2012-11-07 16:00:00,85.0,28.6,29.77,NW,315,2.0,5.0,13,0.00,,,0.00,WUHU216DAVISVP2,2012-11-08 00:00:00,
2012-11-07 16:30:00,79.5,29.4,29.78,NNE,23,0.0,4.0,16,0.00,,,0.00,WUHU216DAVISVP2,2012-11-08 00:30:00,
2012-11-07 17:00:00,72.3,27.7,29.78,North,0,0.0,0.0,19,0.00,,,0.00,WUHU216DAVISVP2,2012-11-08 01:00:00,
2012-11-07 17:30:00,68.5,27.0,29.79,North,0,0.0,0.0,21,0.00,,,0.00,WUHU216DAVISVP2,2012-11-08 01:30:00,
2012-11-07 18:00:00,66.1,27.2,29.80,North,0,0.0,0.0,23,0.00,,,0.00,WUHU216DAVISVP2,2012-11-08 02:00:00,
2012-11-07 18:30:00,64.6,27.9,29.80,NNE,23,0.0,1.0,25,0.00,,,0.00,WUHU216DAVISVP2,2012-11-08 02:30:00,
2012-11-07 19:00:00,64.1,26.5,29.81,NNE,23,0.0,1.0,24,0.00,,,0.00,WUHU216DAVISVP2,2012-11-08 03:00:00,
2012-11-07 19:30:00,63.3,25.9,29.81,ESE,113,0.0,2.0,24,0.00,,,0.00,WUHU216DAVISVP2,2012-11-08 03:30:00,
2012-11-07 20:00:00,63.6,26.1,29.82,SE,135,0.0,2.0,24,0.00,,,0.00,WUHU216DAVISVP2,2012-11-08 04:00:00,
2012-11-07 20:30:00,62.9,25.5,29.82,SE,135,0.0,2.0,24,0.00,,,0.00,WUHU216DAVISVP2,2012-11-08 04:30:00,
2012-11-07 21:00:00,62.1,25.8,29.82,ESE,113,0.0,1.0,25,0.00,,,0.00,WUHU216DAVISVP2,2012-11-08 05:00:00,
2012-11-07 21:30:00,61.6,25.4,29.82,ESE,113,1.0,3.0,25,0.00,,,0.00,WUHU216DAVISVP2,2012-11-08 05:30:00,
2012-11-07 22:00:00,61.6,25.4,29.82,ESE,113,1.0,3.0,25,0.00,,,0.00,WUHU216DAVISVP2,2012-11-08 06:00:00,
2012-11-07 22:30:00,60.9,25.7,29.81,ESE,113,1.0,3.0,26,0.00,,,0.00,WUHU216DAVISVP2,2012-11-08 06:30:00,
2012-11-07 23:00:00,60.9,25.7,29.81,ESE,113,1.0,3.0,26,0.00,,,0.00,WUHU216DAVISVP2,2012-11-08 07:00:00,
2012-11-07 23:30:00,61.2,26.0,29.80,SE,135,1.0,3.0,26,0.00,,,0.00,WUHU216DAVISVP2,2012-11-08 07:30:00,